KMHR/MHR METAR and TAF weather

Enter ICAO airport designator
Station Type Date Time Source
KMHR METAR 2019/10/23 11:45 UTC NOAA

KMHR 231145Z 07003KT 10SM SKC 11/07 A3000


Station Type Date Time Source
KMHR Decoded METAR 2019/10/23 11:45 UTC NOAA

Sacramento, Sacramento Mather Airport, CA, United States (KMHR) 38-33N 121-18W
Oct 23, 2019 - 07:45 AM EDT / 2019.10.23 1145 UTC
Wind: from the ENE (070 degrees) at 3 MPH (3 KT):0
Visibility: 10 mile(s):0
Sky conditions: clear
Temperature: 51 F (11 C)
Dew Point: 44 F (7 C)
Relative Humidity: 76%
Pressure (altimeter): 30 in. Hg (1015 hPa)
ob: KMHR 231145Z 07003KT 10SM SKC 11/07 A3000
cycle: 12

Station Type Date Time Source
KMHR TAF 2019/10/23 12:22 UTC NOAA

TAF KMHR 231120Z 2312/2412 VRB03KT P6SM SKC
FM232100 33011G17KT P6SM SKC
FM240200 34007KT P6SM SKC

Example: see airport list